sensor_id;sensor_type;location;lat;lon;timestamp;temperature;humidity
25170;DHT22;13129;48.012;10.352;2023-08-21T03:32:34;16.90;99.90
25170;DHT22;13129;48.012;10.352;2023-08-21T03:35:03;16.90;99.90
25170;DHT22;13129;48.012;10.352;2023-08-21T03:40:13;16.90;99.90
25170;DHT22;13129;48.012;10.352;2023-08-21T04:03:30;16.60;99.90
25170;DHT22;13129;48.012;10.352;2023-08-21T04:10:24;16.50;99.90
25170;DHT22;13129;48.012;10.352;2023-08-21T04:14:26;16.40;99.90
25170;DHT22;13129;48.012;10.352;2023-08-21T04:17:42;16.40;99.90
25170;DHT22;13129;48.012;10.352;2023-08-21T04:23:26;16.40;99.90
25170;DHT22;13129;48.012;10.352;2023-08-21T04:27:31;16.40;99.90
25170;DHT22;13129;48.012;10.352;2023-08-21T04:30:03;16.50;99.90
25170;DHT22;13129;48.012;10.352;2023-08-21T05:03:46;17.20;99.90
25170;DHT22;13129;48.012;10.352;2023-08-21T05:07:02;17.30;99.90
25170;DHT22;13129;48.012;10.352;2023-08-21T05:13:29;17.50;99.90
25170;DHT22;13129;48.012;10.352;2023-08-21T05:19:16;17.70;99.90
25170;DHT22;13129;48.012;10.352;2023-08-21T05:21:43;18.00;99.90
25170;DHT22;13129;48.012;10.352;2023-08-21T05:24:09;18.40;99.90
25170;DHT22;13129;48.012;10.352;2023-08-21T05:26:38;18.70;99.90
25170;DHT22;13129;48.012;10.352;2023-08-21T05:29:04;19.30;99.90
25170;DHT22;13129;48.012;10.352;2023-08-21T05:31:29;20.40;99.90
25170;DHT22;13129;48.012;10.352;2023-08-21T05:33:55;21.80;99.90
25170;DHT22;13129;48.012;10.352;2023-08-21T05:36:21;23.10;99.90
25170;DHT22;13129;48.012;10.352;2023-08-21T05:38:46;24.20;99.90
25170;DHT22;13129;48.012;10.352;2023-08-21T05:41:14;25.40;99.90
25170;DHT22;13129;48.012;10.352;2023-08-21T05:43:39;26.20;99.90
25170;DHT22;13129;48.012;10.352;2023-08-21T05:46:07;26.90;99.90
25170;DHT22;13129;48.012;10.352;2023-08-21T05:48:33;27.60;99.90
25170;DHT22;13129;48.012;10.352;2023-08-21T05:50:59;28.50;99.90
25170;DHT22;13129;48.012;10.352;2023-08-21T05:53:25;29.10;99.90
25170;DHT22;13129;48.012;10.352;2023-08-21T05:55:50;30.00;99.60
25170;DHT22;13129;48.012;10.352;2023-08-21T05:58:16;30.70;96.60
25170;DHT22;13129;48.012;10.352;2023-08-21T06:00:41;31.40;94.70
25170;DHT22;13129;48.012;10.352;2023-08-21T06:03:07;32.00;92.80
25170;DHT22;13129;48.012;10.352;2023-08-21T06:05:33;32.40;91.20
25170;DHT22;13129;48.012;10.352;2023-08-21T06:07:58;32.60;90.00
25170;DHT22;13129;48.012;10.352;2023-08-21T06:10:24;32.80;88.20
25170;DHT22;13129;48.012;10.352;2023-08-21T06:12:49;33.20;86.60
25170;DHT22;13129;48.012;10.352;2023-08-21T06:15:16;33.30;84.90
25170;DHT22;13129;48.012;10.352;2023-08-21T06:17:42;33.50;83.10
25170;DHT22;13129;48.012;10.352;2023-08-21T06:20:08;33.50;82.10
25170;DHT22;13129;48.012;10.352;2023-08-21T06:22:35;33.80;80.90
25170;DHT22;13129;48.012;10.352;2023-08-21T06:25:01;34.10;79.80
25170;DHT22;13129;48.012;10.352;2023-08-21T06:27:27;34.50;78.30
25170;DHT22;13129;48.012;10.352;2023-08-21T06:29:52;34.70;76.90
25170;DHT22;13129;48.012;10.352;2023-08-21T06:32:18;35.00;76.90
25170;DHT22;13129;48.012;10.352;2023-08-21T06:34:43;35.40;74.60
25170;DHT22;13129;48.012;10.352;2023-08-21T06:37:09;35.70;73.10
25170;DHT22;13129;48.012;10.352;2023-08-21T06:39:35;36.10;72.20
25170;DHT22;13129;48.012;10.352;2023-08-21T06:42:01;36.50;70.90
25170;DHT22;13129;48.012;10.352;2023-08-21T06:44:27;36.80;70.20
25170;DHT22;13129;48.012;10.352;2023-08-21T06:46:52;37.10;68.80
25170;DHT22;13129;48.012;10.352;2023-08-21T06:49:18;37.30;67.30
25170;DHT22;13129;48.012;10.352;2023-08-21T06:51:44;37.50;66.40
25170;DHT22;13129;48.012;10.352;2023-08-21T06:54:09;37.50;65.20
25170;DHT22;13129;48.012;10.352;2023-08-21T06:56:35;37.60;64.60
25170;DHT22;13129;48.012;10.352;2023-08-21T06:59:01;37.70;64.30
25170;DHT22;13129;48.012;10.352;2023-08-21T07:01:28;37.80;63.30
25170;DHT22;13129;48.012;10.352;2023-08-21T07:03:53;38.10;62.70
25170;DHT22;13129;48.012;10.352;2023-08-21T07:06:19;38.70;62.00
25170;DHT22;13129;48.012;10.352;2023-08-21T07:08:45;39.00;60.30
25170;DHT22;13129;48.012;10.352;2023-08-21T07:11:10;39.00;59.20
25170;DHT22;13129;48.012;10.352;2023-08-21T07:13:37;38.70;59.20
25170;DHT22;13129;48.012;10.352;2023-08-21T07:16:03;37.20;61.50
25170;DHT22;13129;48.012;10.352;2023-08-21T07:18:32;36.40;64.80
25170;DHT22;13129;48.012;10.352;2023-08-21T07:20:57;37.00;65.00
25170;DHT22;13129;48.012;10.352;2023-08-21T07:23:23;37.90;62.20
25170;DHT22;13129;48.012;10.352;2023-08-21T07:25:48;38.90;60.00
25170;DHT22;13129;48.012;10.352;2023-08-21T07:28:14;39.60;58.30
25170;DHT22;13129;48.012;10.352;2023-08-21T07:30:40;40.20;57.00
25170;DHT22;13129;48.012;10.352;2023-08-21T07:33:05;40.90;55.90
25170;DHT22;13129;48.012;10.352;2023-08-21T07:35:32;41.00;55.30
25170;DHT22;13129;48.012;10.352;2023-08-21T07:37:57;40.90;55.00
25170;DHT22;13129;48.012;10.352;2023-08-21T07:40:23;41.00;54.50
25170;DHT22;13129;48.012;10.352;2023-08-21T07:42:49;41.50;54.30
25170;DHT22;13129;48.012;10.352;2023-08-21T07:45:14;41.80;53.30
25170;DHT22;13129;48.012;10.352;2023-08-21T07:47:40;42.10;52.70
25170;DHT22;13129;48.012;10.352;2023-08-21T07:50:06;42.30;51.70
25170;DHT22;13129;48.012;10.352;2023-08-21T07:52:32;42.40;51.60
25170;DHT22;13129;48.012;10.352;2023-08-21T07:54:58;42.50;51.50
25170;DHT22;13129;48.012;10.352;2023-08-21T07:57:26;42.60;51.60
25170;DHT22;13129;48.012;10.352;2023-08-21T07:59:52;42.70;50.90
25170;DHT22;13129;48.012;10.352;2023-08-21T08:02:17;42.90;50.90
25170;DHT22;13129;48.012;10.352;2023-08-21T08:04:43;43.10;50.30
25170;DHT22;13129;48.012;10.352;2023-08-21T08:07:08;43.30;49.80
25170;DHT22;13129;48.012;10.352;2023-08-21T08:09:34;43.50;50.20
25170;DHT22;13129;48.012;10.352;2023-08-21T08:12:00;43.80;49.00
25170;DHT22;13129;48.012;10.352;2023-08-21T08:14:25;43.70;48.70
25170;DHT22;13129;48.012;10.352;2023-08-21T08:16:51;43.90;48.50
25170;DHT22;13129;48.012;10.352;2023-08-21T08:19:17;43.60;48.20
25170;DHT22;13129;48.012;10.352;2023-08-21T08:21:42;43.90;47.90
25170;DHT22;13129;48.012;10.352;2023-08-21T08:24:08;44.10;47.60
25170;DHT22;13129;48.012;10.352;2023-08-21T08:26:33;44.10;48.00
25170;DHT22;13129;48.012;10.352;2023-08-21T08:28:59;43.90;47.40
25170;DHT22;13129;48.012;10.352;2023-08-21T08:31:24;43.50;47.30
25170;DHT22;13129;48.012;10.352;2023-08-21T08:33:53;43.10;48.10
25170;DHT22;13129;48.012;10.352;2023-08-21T08:36:19;43.00;48.50
25170;DHT22;13129;48.012;10.352;2023-08-21T08:38:44;43.30;48.60
25170;DHT22;13129;48.012;10.352;2023-08-21T08:41:14;43.40;48.20
25170;DHT22;13129;48.012;10.352;2023-08-21T08:43:44;43.10;47.80
25170;DHT22;13129;48.012;10.352;2023-08-21T08:46:11;43.00;48.10
25170;DHT22;13129;48.012;10.352;2023-08-21T08:48:37;42.80;48.30
25170;DHT22;13129;48.012;10.352;2023-08-21T08:51:04;43.00;48.30
25170;DHT22;13129;48.012;10.352;2023-08-21T08:53:30;43.00;48.10
25170;DHT22;13129;48.012;10.352;2023-08-21T08:55:57;42.80;48.10
25170;DHT22;13129;48.012;10.352;2023-08-21T08:58:23;43.10;48.70
25170;DHT22;13129;48.012;10.352;2023-08-21T09:00:49;43.60;48.10
25170;DHT22;13129;48.012;10.352;2023-08-21T09:03:15;43.60;47.80
25170;DHT22;13129;48.012;10.352;2023-08-21T09:05:41;43.40;47.50
25170;DHT22;13129;48.012;10.352;2023-08-21T09:10:35;44.10;47.00
25170;DHT22;13129;48.012;10.352;2023-08-21T09:13:12;44.20;46.80
25170;DHT22;13129;48.012;10.352;2023-08-21T09:15:38;44.10;47.10
25170;DHT22;13129;48.012;10.352;2023-08-21T09:18:04;43.90;47.40
25170;DHT22;13129;48.012;10.352;2023-08-21T09:20:35;43.80;47.80
25170;DHT22;13129;48.012;10.352;2023-08-21T09:23:01;43.70;47.90
25170;DHT22;13129;48.012;10.352;2023-08-21T09:25:26;43.80;47.40
25170;DHT22;13129;48.012;10.352;2023-08-21T09:27:52;43.60;47.30
25170;DHT22;13129;48.012;10.352;2023-08-21T09:30:21;43.60;47.60
25170;DHT22;13129;48.012;10.352;2023-08-21T09:32:57;43.90;47.00
25170;DHT22;13129;48.012;10.352;2023-08-21T09:35:25;43.90;47.10
25170;DHT22;13129;48.012;10.352;2023-08-21T09:37:52;44.00;47.20
25170;DHT22;13129;48.012;10.352;2023-08-21T09:40:21;43.90;46.80
25170;DHT22;13129;48.012;10.352;2023-08-21T09:42:52;44.00;46.90
25170;DHT22;13129;48.012;10.352;2023-08-21T09:45:21;43.80;46.90
25170;DHT22;13129;48.012;10.352;2023-08-21T09:47:47;44.10;46.50
25170;DHT22;13129;48.012;10.352;2023-08-21T09:50:12;44.20;46.70
25170;DHT22;13129;48.012;10.352;2023-08-21T09:52:38;44.20;46.80
25170;DHT22;13129;48.012;10.352;2023-08-21T09:55:05;44.00;45.90
25170;DHT22;13129;48.012;10.352;2023-08-21T09:57:31;44.10;45.70
25170;DHT22;13129;48.012;10.352;2023-08-21T09:59:59;44.20;45.30
25170;DHT22;13129;48.012;10.352;2023-08-21T10:02:27;44.20;45.40
25170;DHT22;13129;48.012;10.352;2023-08-21T10:04:54;44.30;45.30
25170;DHT22;13129;48.012;10.352;2023-08-21T10:07:21;43.90;45.30
25170;DHT22;13129;48.012;10.352;2023-08-21T10:09:50;43.90;46.20
25170;DHT22;13129;48.012;10.352;2023-08-21T10:12:17;44.00;46.10
25170;DHT22;13129;48.012;10.352;2023-08-21T10:14:43;44.40;46.00
25170;DHT22;13129;48.012;10.352;2023-08-21T10:17:09;44.30;45.70
25170;DHT22;13129;48.012;10.352;2023-08-21T10:19:35;44.10;46.40
25170;DHT22;13129;48.012;10.352;2023-08-21T10:22:01;44.10;46.70
25170;DHT22;13129;48.012;10.352;2023-08-21T10:24:36;44.20;46.50
25170;DHT22;13129;48.012;10.352;2023-08-21T10:27:02;44.20;46.40
25170;DHT22;13129;48.012;10.352;2023-08-21T10:29:28;44.10;46.70
25170;DHT22;13129;48.012;10.352;2023-08-21T10:32:04;43.90;46.50
25170;DHT22;13129;48.012;10.352;2023-08-21T10:34:35;44.00;46.20
25170;DHT22;13129;48.012;10.352;2023-08-21T10:37:10;44.00;45.80
25170;DHT22;13129;48.012;10.352;2023-08-21T10:39:38;43.90;45.70
25170;DHT22;13129;48.012;10.352;2023-08-21T10:42:07;43.90;45.00
25170;DHT22;13129;48.012;10.352;2023-08-21T10:47:32;42.80;48.50
25170;DHT22;13129;48.012;10.352;2023-08-21T10:49:59;41.50;51.50
25170;DHT22;13129;48.012;10.352;2023-08-21T10:55:00;39.40;54.50
25170;DHT22;13129;48.012;10.352;2023-08-21T10:57:29;38.60;55.00
25170;DHT22;13129;48.012;10.352;2023-08-21T11:00:06;37.80;56.30
25170;DHT22;13129;48.012;10.352;2023-08-21T11:02:35;37.10;56.70
25170;DHT22;13129;48.012;10.352;2023-08-21T11:05:01;36.60;58.50
25170;DHT22;13129;48.012;10.352;2023-08-21T11:07:29;36.20;59.80
25170;DHT22;13129;48.012;10.352;2023-08-21T11:09:55;35.90;59.70
25170;DHT22;13129;48.012;10.352;2023-08-21T11:12:22;35.90;59.50
25170;DHT22;13129;48.012;10.352;2023-08-21T11:14:49;36.10;58.00
25170;DHT22;13129;48.012;10.352;2023-08-21T11:17:15;35.90;58.30
25170;DHT22;13129;48.012;10.352;2023-08-21T11:19:42;35.70;59.00
25170;DHT22;13129;48.012;10.352;2023-08-21T11:22:08;35.90;57.30
25170;DHT22;13129;48.012;10.352;2023-08-21T11:27:03;35.40;59.80
25170;DHT22;13129;48.012;10.352;2023-08-21T11:29:37;35.30;61.70
25170;DHT22;13129;48.012;10.352;2023-08-21T11:32:03;35.20;62.00
25170;DHT22;13129;48.012;10.352;2023-08-21T11:34:29;35.20;62.40
25170;DHT22;13129;48.012;10.352;2023-08-21T11:36:57;35.30;61.20
25170;DHT22;13129;48.012;10.352;2023-08-21T11:39:23;35.30;59.10
25170;DHT22;13129;48.012;10.352;2023-08-21T11:41:56;35.30;60.90
25170;DHT22;13129;48.012;10.352;2023-08-21T11:44:22;35.30;60.00
25170;DHT22;13129;48.012;10.352;2023-08-21T11:46:50;35.10;60.60
25170;DHT22;13129;48.012;10.352;2023-08-21T11:49:15;35.00;62.00
25170;DHT22;13129;48.012;10.352;2023-08-21T11:51:41;34.90;61.60
25170;DHT22;13129;48.012;10.352;2023-08-21T11:54:07;34.70;62.80
25170;DHT22;13129;48.012;10.352;2023-08-21T11:56:32;34.60;62.30
25170;DHT22;13129;48.012;10.352;2023-08-21T11:58:58;34.70;62.30
25170;DHT22;13129;48.012;10.352;2023-08-21T12:01:24;34.90;60.10
25170;DHT22;13129;48.012;10.352;2023-08-21T12:03:50;34.80;60.10
25170;DHT22;13129;48.012;10.352;2023-08-21T12:06:21;34.70;61.60
25170;DHT22;13129;48.012;10.352;2023-08-21T12:08:46;34.50;63.10
25170;DHT22;13129;48.012;10.352;2023-08-21T12:11:12;34.40;63.80
25170;DHT22;13129;48.012;10.352;2023-08-21T12:13:38;34.30;63.00
25170;DHT22;13129;48.012;10.352;2023-08-21T12:16:04;34.10;64.10
25170;DHT22;13129;48.012;10.352;2023-08-21T12:18:30;34.10;64.00
25170;DHT22;13129;48.012;10.352;2023-08-21T12:20:55;34.10;63.50
25170;DHT22;13129;48.012;10.352;2023-08-21T12:23:21;34.20;63.00
25170;DHT22;13129;48.012;10.352;2023-08-21T12:25:48;34.30;62.40
25170;DHT22;13129;48.012;10.352;2023-08-21T12:28:14;34.30;62.40
25170;DHT22;13129;48.012;10.352;2023-08-21T12:30:40;34.30;61.70
25170;DHT22;13129;48.012;10.352;2023-08-21T12:33:06;34.20;62.20
25170;DHT22;13129;48.012;10.352;2023-08-21T12:35:31;34.10;62.60
25170;DHT22;13129;48.012;10.352;2023-08-21T12:37:58;34.00;62.30
25170;DHT22;13129;48.012;10.352;2023-08-21T12:40:24;33.90;62.20
25170;DHT22;13129;48.012;10.352;2023-08-21T12:42:50;33.90;62.30
25170;DHT22;13129;48.012;10.352;2023-08-21T12:45:16;33.80;62.10
25170;DHT22;13129;48.012;10.352;2023-08-21T12:47:42;33.80;61.90
25170;DHT22;13129;48.012;10.352;2023-08-21T12:50:08;33.70;61.20
25170;DHT22;13129;48.012;10.352;2023-08-21T12:52:33;33.70;61.10
25170;DHT22;13129;48.012;10.352;2023-08-21T12:54:59;33.70;61.40
25170;DHT22;13129;48.012;10.352;2023-08-21T12:57:27;33.70;60.90
25170;DHT22;13129;48.012;10.352;2023-08-21T12:59:52;33.60;61.30
25170;DHT22;13129;48.012;10.352;2023-08-21T13:02:18;33.50;61.90
25170;DHT22;13129;48.012;10.352;2023-08-21T13:04:44;33.50;61.30
25170;DHT22;13129;48.012;10.352;2023-08-21T13:07:10;33.40;60.40
25170;DHT22;13129;48.012;10.352;2023-08-21T13:09:35;33.30;61.90
25170;DHT22;13129;48.012;10.352;2023-08-21T13:12:01;33.30;62.20
25170;DHT22;13129;48.012;10.352;2023-08-21T13:14:27;33.10;63.50
25170;DHT22;13129;48.012;10.352;2023-08-21T13:16:52;33.10;63.60
25170;DHT22;13129;48.012;10.352;2023-08-21T13:19:18;33.10;64.90
25170;DHT22;13129;48.012;10.352;2023-08-21T13:21:44;33.00;65.90
25170;DHT22;13129;48.012;10.352;2023-08-21T13:24:10;33.00;66.40
25170;DHT22;13129;48.012;10.352;2023-08-21T13:26:36;33.00;66.50
25170;DHT22;13129;48.012;10.352;2023-08-21T13:29:01;33.00;66.70
25170;DHT22;13129;48.012;10.352;2023-08-21T13:31:27;32.90;67.10
25170;DHT22;13129;48.012;10.352;2023-08-21T13:33:54;32.80;67.40
25170;DHT22;13129;48.012;10.352;2023-08-21T13:36:22;32.80;67.90
25170;DHT22;13129;48.012;10.352;2023-08-21T13:38:48;32.70;68.20
25170;DHT22;13129;48.012;10.352;2023-08-21T13:41:14;32.70;67.90
25170;DHT22;13129;48.012;10.352;2023-08-21T13:43:39;32.60;67.80
25170;DHT22;13129;48.012;10.352;2023-08-21T13:46:05;32.60;67.60
25170;DHT22;13129;48.012;10.352;2023-08-21T13:48:31;32.60;67.10
25170;DHT22;13129;48.012;10.352;2023-08-21T13:50:57;32.60;66.40
25170;DHT22;13129;48.012;10.352;2023-08-21T13:53:23;32.60;66.40
25170;DHT22;13129;48.012;10.352;2023-08-21T13:55:50;32.60;66.30
25170;DHT22;13129;48.012;10.352;2023-08-21T13:58:17;32.50;65.10
25170;DHT22;13129;48.012;10.352;2023-08-21T14:00:43;32.40;64.80
25170;DHT22;13129;48.012;10.352;2023-08-21T14:03:10;32.40;64.90
25170;DHT22;13129;48.012;10.352;2023-08-21T14:05:35;32.40;65.60
25170;DHT22;13129;48.012;10.352;2023-08-21T14:08:01;32.50;65.80
25170;DHT22;13129;48.012;10.352;2023-08-21T14:10:27;32.50;65.70
25170;DHT22;13129;48.012;10.352;2023-08-21T14:12:52;32.30;66.10
25170;DHT22;13129;48.012;10.352;2023-08-21T14:15:18;32.10;65.00
25170;DHT22;13129;48.012;10.352;2023-08-21T14:17:44;32.20;65.20
25170;DHT22;13129;48.012;10.352;2023-08-21T14:20:10;32.10;65.30
25170;DHT22;13129;48.012;10.352;2023-08-21T14:22:38;32.00;66.50
25170;DHT22;13129;48.012;10.352;2023-08-21T14:25:04;31.90;67.10
25170;DHT22;13129;48.012;10.352;2023-08-21T14:27:33;31.90;67.70
25170;DHT22;13129;48.012;10.352;2023-08-21T14:29:59;31.80;67.90
25170;DHT22;13129;48.012;10.352;2023-08-21T14:32:25;31.70;68.10
25170;DHT22;13129;48.012;10.352;2023-08-21T14:34:51;31.60;69.00
25170;DHT22;13129;48.012;10.352;2023-08-21T14:37:19;31.50;69.50
25170;DHT22;13129;48.012;10.352;2023-08-21T14:39:46;31.40;69.80
25170;DHT22;13129;48.012;10.352;2023-08-21T14:42:12;31.30;69.90
25170;DHT22;13129;48.012;10.352;2023-08-21T14:44:38;31.20;69.90
25170;DHT22;13129;48.012;10.352;2023-08-21T14:47:04;31.20;69.90
25170;DHT22;13129;48.012;10.352;2023-08-21T14:49:32;31.10;70.50
25170;DHT22;13129;48.012;10.352;2023-08-21T14:51:58;31.10;70.50
25170;DHT22;13129;48.012;10.352;2023-08-21T14:54:24;31.10;70.70
25170;DHT22;13129;48.012;10.352;2023-08-21T14:56:50;31.10;70.70
25170;DHT22;13129;48.012;10.352;2023-08-21T14:59:16;31.00;70.80
25170;DHT22;13129;48.012;10.352;2023-08-21T15:01:43;31.00;70.90
25170;DHT22;13129;48.012;10.352;2023-08-21T15:04:09;30.90;70.90
25170;DHT22;13129;48.012;10.352;2023-08-21T15:06:38;30.90;69.50
25170;DHT22;13129;48.012;10.352;2023-08-21T15:09:06;30.90;68.30
25170;DHT22;13129;48.012;10.352;2023-08-21T15:11:32;30.90;68.30
25170;DHT22;13129;48.012;10.352;2023-08-21T15:14:01;30.90;69.20
25170;DHT22;13129;48.012;10.352;2023-08-21T15:16:27;30.90;69.30
25170;DHT22;13129;48.012;10.352;2023-08-21T15:18:54;30.90;69.10
25170;DHT22;13129;48.012;10.352;2023-08-21T15:21:21;30.80;69.40
25170;DHT22;13129;48.012;10.352;2023-08-21T15:23:47;30.70;69.70
25170;DHT22;13129;48.012;10.352;2023-08-21T15:26:13;30.70;70.40
25170;DHT22;13129;48.012;10.352;2023-08-21T15:28:39;30.60;71.10
25170;DHT22;13129;48.012;10.352;2023-08-21T15:31:04;30.60;71.50
25170;DHT22;13129;48.012;10.352;2023-08-21T15:33:33;30.50;72.00
25170;DHT22;13129;48.012;10.352;2023-08-21T15:35:58;30.50;72.80
25170;DHT22;13129;48.012;10.352;2023-08-21T15:38:26;30.40;73.30
25170;DHT22;13129;48.012;10.352;2023-08-21T15:40:52;30.30;73.90
25170;DHT22;13129;48.012;10.352;2023-08-21T15:43:18;30.30;74.10
25170;DHT22;13129;48.012;10.352;2023-08-21T15:45:45;30.20;74.00
25170;DHT22;13129;48.012;10.352;2023-08-21T15:48:10;30.20;74.50
25170;DHT22;13129;48.012;10.352;2023-08-21T15:50:36;30.10;74.60
25170;DHT22;13129;48.012;10.352;2023-08-21T15:53:02;30.10;74.90
25170;DHT22;13129;48.012;10.352;2023-08-21T15:55:30;30.10;74.40
25170;DHT22;13129;48.012;10.352;2023-08-21T15:57:56;30.10;73.20
25170;DHT22;13129;48.012;10.352;2023-08-21T16:00:21;30.10;72.60
25170;DHT22;13129;48.012;10.352;2023-08-21T16:02:49;30.00;72.60
25170;DHT22;13129;48.012;10.352;2023-08-21T16:05:15;29.90;73.10
25170;DHT22;13129;48.012;10.352;2023-08-21T16:07:41;29.80;73.20
25170;DHT22;13129;48.012;10.352;2023-08-21T16:10:07;29.80;73.60
25170;DHT22;13129;48.012;10.352;2023-08-21T16:12:33;29.70;74.30
25170;DHT22;13129;48.012;10.352;2023-08-21T16:14:59;29.70;75.30
25170;DHT22;13129;48.012;10.352;2023-08-21T16:17:24;29.60;75.60
25170;DHT22;13129;48.012;10.352;2023-08-21T16:19:50;29.50;76.10
25170;DHT22;13129;48.012;10.352;2023-08-21T16:22:16;29.40;77.40
25170;DHT22;13129;48.012;10.352;2023-08-21T16:24:42;29.30;77.60
25170;DHT22;13129;48.012;10.352;2023-08-21T16:27:07;29.20;77.70
25170;DHT22;13129;48.012;10.352;2023-08-21T16:29:33;29.20;77.50
25170;DHT22;13129;48.012;10.352;2023-08-21T16:31:58;29.20;77.40
25170;DHT22;13129;48.012;10.352;2023-08-21T16:34:24;29.20;77.10
25170;DHT22;13129;48.012;10.352;2023-08-21T16:36:49;29.20;77.40
25170;DHT22;13129;48.012;10.352;2023-08-21T16:39:15;29.20;77.60
25170;DHT22;13129;48.012;10.352;2023-08-21T16:41:41;29.10;77.40
25170;DHT22;13129;48.012;10.352;2023-08-21T16:44:07;29.10;77.50
25170;DHT22;13129;48.012;10.352;2023-08-21T16:46:33;29.10;77.60
25170;DHT22;13129;48.012;10.352;2023-08-21T16:48:58;29.00;77.30
25170;DHT22;13129;48.012;10.352;2023-08-21T16:51:24;29.00;77.30
25170;DHT22;13129;48.012;10.352;2023-08-21T16:53:49;28.90;77.30
25170;DHT22;13129;48.012;10.352;2023-08-21T16:56:16;28.90;77.50
25170;DHT22;13129;48.012;10.352;2023-08-21T16:58:42;28.80;77.70
25170;DHT22;13129;48.012;10.352;2023-08-21T17:01:07;28.80;77.90
25170;DHT22;13129;48.012;10.352;2023-08-21T17:03:33;28.70;77.90
25170;DHT22;13129;48.012;10.352;2023-08-21T17:05:58;28.70;78.20
25170;DHT22;13129;48.012;10.352;2023-08-21T17:08:24;28.60;78.90
25170;DHT22;13129;48.012;10.352;2023-08-21T17:10:49;28.50;79.90
25170;DHT22;13129;48.012;10.352;2023-08-21T17:13:16;28.40;81.20
25170;DHT22;13129;48.012;10.352;2023-08-21T17:15:42;28.30;82.20
25170;DHT22;13129;48.012;10.352;2023-08-21T17:18:07;28.20;82.80
25170;DHT22;13129;48.012;10.352;2023-08-21T17:20:33;28.20;83.40
25170;DHT22;13129;48.012;10.352;2023-08-21T17:22:59;28.10;84.10
25170;DHT22;13129;48.012;10.352;2023-08-21T17:25:25;28.00;84.30
25170;DHT22;13129;48.012;10.352;2023-08-21T17:27:50;28.00;84.70
25170;DHT22;13129;48.012;10.352;2023-08-21T17:30:18;27.90;84.90
25170;DHT22;13129;48.012;10.352;2023-08-21T17:32:43;27.90;85.40
25170;DHT22;13129;48.012;10.352;2023-08-21T17:35:09;27.80;86.10
25170;DHT22;13129;48.012;10.352;2023-08-21T17:37:35;27.70;86.40
25170;DHT22;13129;48.012;10.352;2023-08-21T17:40:00;27.60;86.80
25170;DHT22;13129;48.012;10.352;2023-08-21T17:42:27;27.50;87.20
25170;DHT22;13129;48.012;10.352;2023-08-21T17:44:54;27.50;87.70
25170;DHT22;13129;48.012;10.352;2023-08-21T17:47:20;27.40;88.80
25170;DHT22;13129;48.012;10.352;2023-08-21T17:49:46;27.30;89.40
25170;DHT22;13129;48.012;10.352;2023-08-21T17:52:12;27.20;89.90
25170;DHT22;13129;48.012;10.352;2023-08-21T17:54:37;27.10;90.30
25170;DHT22;13129;48.012;10.352;2023-08-21T17:57:08;27.00;90.70
25170;DHT22;13129;48.012;10.352;2023-08-21T17:59:34;26.90;91.10
25170;DHT22;13129;48.012;10.352;2023-08-21T18:02:00;26.70;91.60
25170;DHT22;13129;48.012;10.352;2023-08-21T18:04:26;26.60;92.10
25170;DHT22;13129;48.012;10.352;2023-08-21T18:06:51;26.50;92.20
25170;DHT22;13129;48.012;10.352;2023-08-21T18:09:17;26.40;92.20
25170;DHT22;13129;48.012;10.352;2023-08-21T18:11:44;26.30;92.20
25170;DHT22;13129;48.012;10.352;2023-08-21T18:14:10;26.30;93.00
25170;DHT22;13129;48.012;10.352;2023-08-21T18:16:36;26.20;93.00
25170;DHT22;13129;48.012;10.352;2023-08-21T18:19:01;26.10;93.70
25170;DHT22;13129;48.012;10.352;2023-08-21T18:21:27;26.00;94.40
25170;DHT22;13129;48.012;10.352;2023-08-21T18:23:53;25.90;95.10
25170;DHT22;13129;48.012;10.352;2023-08-21T18:26:18;25.80;95.40
25170;DHT22;13129;48.012;10.352;2023-08-21T18:28:44;25.70;96.10
25170;DHT22;13129;48.012;10.352;2023-08-21T18:31:10;25.60;96.90
25170;DHT22;13129;48.012;10.352;2023-08-21T18:33:36;25.50;97.90
25170;DHT22;13129;48.012;10.352;2023-08-21T18:36:01;25.40;98.80
25170;DHT22;13129;48.012;10.352;2023-08-21T18:38:27;25.30;99.80
25170;DHT22;13129;48.012;10.352;2023-08-21T18:40:53;25.20;99.90
25170;DHT22;13129;48.012;10.352;2023-08-21T18:43:19;25.10;99.90
25170;DHT22;13129;48.012;10.352;2023-08-21T18:45:45;25.10;99.90
25170;DHT22;13129;48.012;10.352;2023-08-21T18:48:16;25.10;99.90
25170;DHT22;13129;48.012;10.352;2023-08-21T18:50:43;25.00;99.90
25170;DHT22;13129;48.012;10.352;2023-08-21T18:53:10;24.90;99.90
25170;DHT22;13129;48.012;10.352;2023-08-21T18:55:38;24.80;99.90
25170;DHT22;13129;48.012;10.352;2023-08-21T18:58:05;24.70;99.90
25170;DHT22;13129;48.012;10.352;2023-08-21T19:00:31;24.60;99.90
25170;DHT22;13129;48.012;10.352;2023-08-21T19:02:57;24.50;99.90
25170;DHT22;13129;48.012;10.352;2023-08-21T19:05:23;24.40;99.90
25170;DHT22;13129;48.012;10.352;2023-08-21T19:07:49;24.40;99.90
25170;DHT22;13129;48.012;10.352;2023-08-21T19:10:15;24.30;99.90
25170;DHT22;13129;48.012;10.352;2023-08-21T19:12:41;24.20;99.90
25170;DHT22;13129;48.012;10.352;2023-08-21T19:15:08;24.10;99.90
25170;DHT22;13129;48.012;10.352;2023-08-21T19:17:33;24.10;99.90
25170;DHT22;13129;48.012;10.352;2023-08-21T19:19:59;24.10;99.90
25170;DHT22;13129;48.012;10.352;2023-08-21T19:22:25;24.00;99.90
25170;DHT22;13129;48.012;10.352;2023-08-21T19:24:51;24.00;99.90
25170;DHT22;13129;48.012;10.352;2023-08-21T19:27:17;23.90;99.90
25170;DHT22;13129;48.012;10.352;2023-08-21T19:29:46;23.80;99.90
25170;DHT22;13129;48.012;10.352;2023-08-21T19:32:11;23.70;99.90
25170;DHT22;13129;48.012;10.352;2023-08-21T19:34:37;23.70;99.90
25170;DHT22;13129;48.012;10.352;2023-08-21T19:37:03;23.60;99.90
25170;DHT22;13129;48.012;10.352;2023-08-21T19:39:30;23.60;99.90
25170;DHT22;13129;48.012;10.352;2023-08-21T19:41:56;23.50;99.90
25170;DHT22;13129;48.012;10.352;2023-08-21T19:44:21;23.40;99.90
25170;DHT22;13129;48.012;10.352;2023-08-21T19:46:47;23.30;99.90
25170;DHT22;13129;48.012;10.352;2023-08-21T19:49:12;23.20;99.90
25170;DHT22;13129;48.012;10.352;2023-08-21T19:51:41;23.20;99.90
25170;DHT22;13129;48.012;10.352;2023-08-21T19:54:06;23.20;99.90
25170;DHT22;13129;48.012;10.352;2023-08-21T19:56:32;23.20;99.90
25170;DHT22;13129;48.012;10.352;2023-08-21T19:58:57;23.20;99.90
25170;DHT22;13129;48.012;10.352;2023-08-21T20:01:23;23.20;99.90
25170;DHT22;13129;48.012;10.352;2023-08-21T20:03:49;22.90;99.90
25170;DHT22;13129;48.012;10.352;2023-08-21T20:06:15;22.80;99.90